Time;durP1;ratioP1;P1;durP2;ratioP2;P2;SDS_P1;SDS_P2;PMS_P1;PMS_P2;Temp;Humidity;BMP_temperature;BMP_pressure;BME280_temperature;BME280_humidity;BME280_pressure;Samples;Min_cycle;Max_cycle;Signal;HPM_P1;HPM_P2
2022/11/29 00:00:58;;;;;;;18.45;13.63;;;;;;;6.52;74.70;96359.38;5072513;28;20044;-76
2022/11/29 00:03:26;;;;;;;20.65;15.27;;;;;;;6.52;74.70;96357.59;5072070;28;20265;-76
2022/11/29 00:05:55;;;;;;;20.83;15.43;;;;;;;6.51;74.80;96361.16;5072392;28;20055;-76
2022/11/29 00:08:23;;;;;;;21.48;15.10;;;;;;;6.51;74.92;96363.72;5072039;28;20485;-76
2022/11/29 00:10:51;;;;;;;24.33;15.80;;;;;;;6.50;75.26;96356.94;5072480;28;20048;-76
2022/11/29 00:13:20;;;;;;;19.65;15.38;;;;;;;6.49;75.40;96354.50;5072667;28;20048;-76
2022/11/29 00:15:47;;;;;;;20.27;15.07;;;;;;;6.49;75.24;96355.31;5072718;28;20106;-76
2022/11/29 00:18:15;;;;;;;21.00;15.93;;;;;;;6.49;75.06;96357.91;5072293;28;20048;-76
2022/11/29 00:20:42;;;;;;;19.13;13.73;;;;;;;6.50;75.01;96361.31;5072473;28;20056;-76
2022/11/29 00:23:10;;;;;;;21.73;15.93;;;;;;;6.49;75.10;96360.50;5083095;28;20097;-76
2022/11/29 00:25:38;;;;;;;21.85;16.73;;;;;;;6.47;75.34;96352.09;5092086;28;20052;-76
2022/11/29 00:28:06;;;;;;;23.85;15.27;;;;;;;6.46;75.54;96360.84;5091861;28;20263;-76
2022/11/29 00:30:34;;;;;;;27.00;16.23;;;;;;;6.46;75.38;96353.06;5092029;28;20044;-76
2022/11/29 00:33:03;;;;;;;21.38;15.57;;;;;;;6.44;75.53;96357.59;5092144;28;20505;-76
2022/11/29 00:35:31;;;;;;;21.00;15.43;;;;;;;6.44;75.31;96352.41;5092166;28;20052;-76
2022/11/29 00:37:59;;;;;;;20.67;15.73;;;;;;;6.45;75.62;96354.03;5092116;28;20055;-76
2022/11/29 00:40:26;;;;;;;24.77;17.75;;;;;;;6.45;75.53;96353.22;5092257;28;20456;-76
2022/11/29 00:42:54;;;;;;;21.17;15.70;;;;;;;6.45;75.75;96355.81;5092365;28;20052;-76
2022/11/29 00:45:21;;;;;;;22.08;16.30;;;;;;;6.45;75.80;96356.63;5092503;28;20044;-76
2022/11/29 00:47:50;;;;;;;20.20;15.43;;;;;;;6.45;75.61;96359.22;5092098;28;20250;-76
2022/11/29 00:50:18;;;;;;;20.17;15.85;;;;;;;6.46;75.88;96355.66;5092034;28;20098;-76
2022/11/29 00:52:46;;;;;;;23.25;17.25;;;;;;;6.45;75.78;96351.44;5087888;28;20044;-76
2022/11/29 00:55:14;;;;;;;18.08;15.10;;;;;;;6.45;75.75;96355.81;5071826;28;20067;-76
2022/11/29 00:57:41;;;;;;;19.60;15.48;;;;;;;6.44;75.72;96352.41;5071931;28;20110;-76
2022/11/29 01:00:10;;;;;;;18.90;15.50;;;;;;;6.43;75.62;96356.00;5071779;28;20045;-76
2022/11/29 01:02:37;;;;;;;21.67;16.42;;;;;;;6.43;75.73;96350.81;5071719;28;20426;-76
2022/11/29 01:05:07;;;;;;;20.10;15.57;;;;;;;6.43;75.93;96356.00;5071568;28;20103;-76
2022/11/29 01:07:35;;;;;;;22.33;17.83;;;;;;;6.40;75.77;96351.09;5072032;28;20064;-76
2022/11/29 01:10:03;;;;;;;24.42;17.83;;;;;;;6.39;75.75;96358.06;5071588;28;20056;-76
2022/11/29 01:12:31;;;;;;;24.40;18.35;;;;;;;6.38;75.89;96360.81;5071565;28;20048;-76
2022/11/29 01:14:58;;;;;;;24.65;18.52;;;;;;;6.39;76.03;96358.06;5071563;28;20055;-76
2022/11/29 01:17:26;;;;;;;27.63;18.55;;;;;;;6.39;75.83;96359.88;5071698;28;20052;-76
2022/11/29 01:19:54;;;;;;;22.75;17.48;;;;;;;6.40;75.93;96356.28;5071546;28;20048;-76
2022/11/29 01:22:22;;;;;;;21.88;17.15;;;;;;;6.39;75.77;96358.06;5071693;28;20514;-76
2022/11/29 01:24:50;;;;;;;24.98;17.65;;;;;;;6.39;75.80;96355.50;5071481;28;20425;-76
2022/11/29 01:27:17;;;;;;;23.92;17.40;;;;;;;6.40;75.71;96359.69;5071578;28;20055;-76
2022/11/29 01:29:45;;;;;;;29.75;19.33;;;;;;;6.40;76.13;96351.09;5071024;28;20040;-76
2022/11/29 01:32:13;;;;;;;27.55;17.67;;;;;;;6.40;76.00;96366.66;5071805;28;20056;-76
2022/11/29 01:34:40;;;;;;;28.45;19.13;;;;;;;6.38;75.82;96363.41;5071627;28;20044;-76
2022/11/29 01:37:08;;;;;;;26.77;17.15;;;;;;;6.36;76.05;96366.19;5071761;28;20045;-76
2022/11/29 01:39:37;;;;;;;27.77;19.15;;;;;;;6.36;76.31;96365.34;5071688;28;20049;-76
2022/11/29 01:42:05;;;;;;;21.40;15.77;;;;;;;6.37;76.31;96365.19;5071835;28;20064;-76
2022/11/29 01:45:18;;;;;;;22.40;16.23;;;;;;;6.37;76.51;96367.78;5074114;28;20052;-76
2022/11/29 01:47:47;;;;;;;18.45;14.45;;;;;;;6.38;76.32;96360.81;5075160;28;20053;-77
2022/11/29 01:50:15;;;;;;;22.10;15.93;;;;;;;6.38;76.17;96366.84;5074997;28;20048;-76
2022/11/29 01:52:43;;;;;;;20.65;16.23;;;;;;;6.38;76.19;96363.41;5075187;28;20048;-76
2022/11/29 01:55:13;;;;;;;23.88;16.40;;;;;;;6.37;76.25;96356.63;5076294;28;20048;-76
2022/11/29 01:57:42;;;;;;;20.40;15.63;;;;;;;6.37;76.37;96367.00;5084626;28;20060;-76
2022/11/29 02:00:12;;;;;;;21.40;16.20;;;;;;;6.37;76.59;96359.22;5089877;28;20044;-76
2022/11/29 02:02:44;;;;;;;19.27;15.10;;;;;;;6.37;76.72;96367.00;5078614;28;20379;-76
2022/11/29 02:05:14;;;;;;;19.40;15.18;;;;;;;6.37;76.62;96360.03;5075041;28;20052;-76
2022/11/29 02:07:45;;;;;;;20.88;16.08;;;;;;;6.38;76.52;96363.41;5075415;28;20068;-76
2022/11/29 02:10:16;;;;;;;19.10;15.18;;;;;;;6.40;76.55;96361.47;5074643;28;20565;-76
2022/11/29 02:12:56;;;;;;;19.90;15.85;;;;;;;6.41;76.68;96357.94;5075148;28;20044;-76
2022/11/29 02:15:34;;;;;;;22.38;15.88;;;;;;;6.43;76.68;96358.56;5074784;28;20063;-76
2022/11/29 02:18:08;;;;;;;20.85;15.77;;;;;;;6.42;76.96;96354.34;5074431;28;20057;-76
2022/11/29 02:21:08;;;;;;;20.75;15.25;;;;;;;6.44;77.04;96355.00;5074505;28;20040;-76
2022/11/29 02:24:01;;;;;;;20.65;16.30;;;;;;;6.45;77.19;96361.81;5074854;28;20060;-76
2022/11/29 02:26:54;;;;;;;18.98;14.95;;;;;;;6.46;76.69;96360.84;5074662;28;20051;-76
2022/11/29 02:29:45;;;;;;;23.60;18.48;;;;;;;6.48;76.95;96358.88;5074067;28;20063;-76
2022/11/29 02:32:49;;;;;;;20.85;15.88;;;;;;;6.48;76.73;96352.91;5072177;28;20098;-76
2022/11/29 02:35:34;;;;;;;21.10;16.40;;;;;;;6.47;76.74;96367.66;5074483;28;20052;-76
2022/11/29 02:38:24;;;;;;;20.27;15.80;;;;;;;6.47;77.01;96357.28;5074129;28;20056;-77
2022/11/29 02:41:21;;;;;;;22.90;16.75;;;;;;;6.47;77.06;96362.47;5074103;28;20048;-76
2022/11/29 02:44:24;;;;;;;24.20;16.75;;;;;;;6.50;77.17;96362.13;5074348;28;20049;-76
2022/11/29 02:47:02;;;;;;;21.48;15.90;;;;;;;6.50;76.89;96359.53;5066560;28;20051;-76
2022/11/29 02:49:49;;;;;;;19.10;15.02;;;;;;;6.52;77.28;96365.38;5073832;28;20429;-76
2022/11/29 02:52:24;;;;;;;19.90;15.82;;;;;;;6.54;77.00;96363.44;5073842;28;20407;-76
2022/11/29 02:54:59;;;;;;;20.77;15.27;;;;;;;6.56;76.78;96361.50;5073369;28;20059;-76
2022/11/29 02:57:36;;;;;;;19.42;15.50;;;;;;;6.58;76.94;96369.91;5073696;28;20068;-76
2022/11/29 03:00:07;;;;;;;20.25;15.40;;;;;;;6.60;76.66;96359.38;5073278;28;20051;-76
2022/11/29 03:02:43;;;;;;;22.73;16.70;;;;;;;6.62;76.65;96364.41;5073644;28;20059;-76
2022/11/29 03:05:20;;;;;;;21.80;16.15;;;;;;;6.64;76.85;96372.81;5073290;28;20053;-76
2022/11/29 03:07:57;;;;;;;21.77;16.17;;;;;;;6.66;76.79;96373.47;5073151;28;20429;-76
2022/11/29 03:10:34;;;;;;;18.92;15.40;;;;;;;6.66;76.70;96371.69;5073523;28;20490;-76
2022/11/29 03:13:09;;;;;;;22.58;15.25;;;;;;;6.64;76.81;96370.22;5073669;28;20508;-76
2022/11/29 03:15:45;;;;;;;20.67;15.63;;;;;;;6.65;76.58;96372.66;5073314;28;20052;-76
2022/11/29 03:18:28;;;;;;;20.20;16.27;;;;;;;6.66;76.94;96381.25;5072832;28;20052;-76
2022/11/29 03:21:09;;;;;;;19.52;15.63;;;;;;;6.66;76.96;96376.88;5073375;28;20059;-76
2022/11/29 03:23:43;;;;;;;19.90;15.70;;;;;;;6.66;77.24;96383.84;5073634;28;20422;-76
2022/11/29 03:26:14;;;;;;;20.65;15.60;;;;;;;6.67;76.85;96382.84;5073195;28;20052;-76
2022/11/29 03:28:48;;;;;;;18.25;14.90;;;;;;;6.68;77.17;96387.06;5072925;28;20059;-76
2022/11/29 03:31:24;;;;;;;20.13;15.63;;;;;;;6.69;76.84;96375.72;5073337;28;20056;-76
2022/11/29 03:33:59;;;;;;;20.42;14.95;;;;;;;6.72;76.98;96385.78;5073283;28;20056;-76
2022/11/29 03:36:35;;;;;;;19.30;14.90;;;;;;;6.72;77.08;96396.16;5073139;28;20055;-76
2022/11/29 03:39:07;;;;;;;21.85;16.45;;;;;;;6.71;77.07;96390.16;5072470;28;20469;-76
2022/11/29 03:41:40;;;;;;;21.35;16.25;;;;;;;6.72;77.25;96385.78;5072641;28;20520;-76
2022/11/29 03:44:10;;;;;;;;;;;;;;;6.77;77.36;96399.06;5073215;28;20055;-76
2022/11/29 03:46:46;;;;;;;18.27;14.55;;;;;;;6.74;76.90;96392.41;5072840;28;19924;-76
2022/11/29 03:49:21;;;;;;;20.13;15.82;;;;;;;6.74;76.99;96394.22;5072377;28;20060;-76
2022/11/29 03:52:00;;;;;;;19.75;15.25;;;;;;;6.73;76.83;96388.19;5073090;28;20044;-76
2022/11/29 03:54:35;;;;;;;18.48;15.15;;;;;;;6.73;76.88;96392.56;5072516;28;20048;-76
2022/11/29 03:57:03;;;;;;;21.25;16.27;;;;;;;6.71;77.00;96391.94;5072526;28;20052;-76
2022/11/29 03:59:46;;;;;;;20.40;15.73;;;;;;;6.69;77.26;96391.28;5072270;28;20502;-76
2022/11/29 04:02:50;;;;;;;19.35;15.70;;;;;;;6.69;77.39;96386.94;5072734;28;20482;-76
2022/11/29 04:05:33;;;;;;;20.10;15.30;;;;;;;6.71;77.54;96399.69;5070485;28;20136;-76
2022/11/29 04:08:10;;;;;;;;;;;;;;;6.75;77.52;96390.63;5072462;28;20503;-76
2022/11/29 04:11:04;;;;;;;18.75;14.73;;;;;;;6.73;77.22;96387.38;5072591;28;19926;-76
2022/11/29 04:14:13;;;;;;;20.85;15.02;;;;;;;6.73;77.45;96390.78;5072468;28;20048;-76
2022/11/29 04:17:05;;;;;;;20.35;14.95;;;;;;;6.72;77.75;96385.78;5057724;28;20048;-76
2022/11/29 04:19:58;;;;;;;20.65;15.95;;;;;;;6.71;77.96;96391.94;5072248;28;20056;-76
2022/11/29 04:23:00;;;;;;;23.67;16.13;;;;;;;6.71;77.85;96389.34;5072212;28;20049;-76
2022/11/29 04:25:48;;;;;;;21.70;16.75;;;;;;;6.70;77.92;96392.91;5072293;28;20059;-76
2022/11/29 04:28:39;;;;;;;19.55;15.88;;;;;;;6.69;77.96;96396.47;5072032;28;20052;-76
2022/11/29 04:31:22;;;;;;;21.33;15.93;;;;;;;6.70;78.06;96396.31;5072023;28;20041;-76
2022/11/29 04:34:18;;;;;;;19.95;15.20;;;;;;;6.70;78.11;96403.28;5072185;28;20056;-76
2022/11/29 04:37:14;;;;;;;21.35;15.30;;;;;;;6.67;78.38;96401.00;5072106;28;20056;-76
2022/11/29 04:40:03;;;;;;;23.17;16.00;;;;;;;6.67;78.95;96403.59;5076414;28;20060;-76
2022/11/29 04:43:08;;;;;;;19.35;14.70;;;;;;;6.70;78.71;96405.88;5085555;28;20075;-76
2022/11/29 04:46:02;;;;;;;19.50;15.00;;;;;;;6.73;78.83;96415.91;5059435;28;20075;-76
2022/11/29 04:48:49;;;;;;;19.98;15.15;;;;;;;6.73;78.73;96411.53;5079125;28;20506;-77
2022/11/29 04:51:29;;;;;;;21.23;16.17;;;;;;;6.72;78.66;96416.88;5078610;28;20056;-76
2022/11/29 04:54:07;;;;;;;19.77;14.63;;;;;;;6.73;78.41;96415.91;5076944;28;20048;-76
2022/11/29 04:56:41;;;;;;;18.92;14.25;;;;;;;6.73;78.44;96421.09;5074230;28;20524;-76
2022/11/29 04:59:18;;;;;;;20.33;14.55;;;;;;;6.74;78.82;96415.75;5071668;28;20044;-76
2022/11/29 05:01:57;;;;;;;22.30;16.67;;;;;;;6.78;78.70;96421.44;5071796;28;20057;-76
2022/11/29 05:04:31;;;;;;;22.05;16.17;;;;;;;6.79;78.57;96420.44;5071801;28;20052;-76
2022/11/29 05:07:06;;;;;;;23.77;16.73;;;;;;;6.81;78.57;96426.28;5072142;28;20407;-76
2022/11/29 05:09:44;;;;;;;21.13;16.33;;;;;;;6.81;78.72;96421.09;5071648;28;20059;-76
2022/11/29 05:12:20;;;;;;;22.33;17.05;;;;;;;6.81;78.74;96426.28;5071920;28;20044;-76
2022/11/29 05:15:14;;;;;;;24.25;18.30;;;;;;;6.82;78.97;96427.88;5071696;28;20049;-76
2022/11/29 05:17:53;;;;;;;20.48;15.93;;;;;;;6.83;78.87;96432.13;5079295;28;20055;-76
2022/11/29 05:20:35;;;;;;;18.02;15.05;;;;;;;6.84;78.84;96422.56;5083365;28;20571;-76
2022/11/29 05:23:17;;;;;;;21.40;15.63;;;;;;;6.84;78.78;96433.72;5075646;28;20045;-77
2022/11/29 05:25:54;;;;;;;19.60;15.17;;;;;;;6.84;78.78;96431.13;5076217;28;20048;-76
2022/11/29 05:28:29;;;;;;;21.05;16.20;;;;;;;6.83;78.78;96434.72;5075255;28;20045;-76
2022/11/29 05:31:19;;;;;;;18.83;14.88;;;;;;;6.82;78.96;96443.44;5075427;28;20498;-76
2022/11/29 05:34:05;;;;;;;20.60;16.15;;;;;;;6.81;79.16;96441.84;5086982;28;20044;-76
2022/11/29 05:36:39;;;;;;;20.95;15.95;;;;;;;6.80;79.38;96441.03;5087739;28;20439;-76
2022/11/29 05:39:22;;;;;;;20.13;15.35;;;;;;;6.81;79.18;96441.84;5075955;28;20055;-76
2022/11/29 05:42:05;;;;;;;18.77;15.35;;;;;;;6.82;79.45;96438.25;5095229;28;20071;-77
2022/11/29 05:44:38;;;;;;;25.90;15.13;;;;;;;6.84;79.13;96441.50;5091253;28;20044;-77
2022/11/29 05:47:09;;;;;;;;;;;;;;;6.89;79.28;96441.03;5089332;28;20048;-76
2022/11/29 05:49:43;;;;;;;21.70;15.20;;;;;;;6.87;78.97;96446.38;5077196;28;19920;-76
2022/11/29 05:52:23;;;;;;;20.80;15.15;;;;;;;6.85;79.12;96448.31;5075927;28;20044;-75
2022/11/29 05:57:28;;;;;;;21.48;16.42;;;;;;;6.84;79.52;96451.88;5071687;28;20640;-75
2022/11/29 05:59:58;;;;;;;20.35;15.65;;;;;;;6.87;79.16;96453.34;5073709;28;20055;-78
2022/11/29 06:02:42;;;;;;;19.55;14.88;;;;;;;6.89;79.62;96454.00;5073481;28;20449;-78
2022/11/29 06:05:17;;;;;;;25.23;17.40;;;;;;;6.88;79.44;96453.19;5073045;28;20722;-78
2022/11/29 06:07:53;;;;;;;19.42;14.95;;;;;;;6.88;79.50;96453.19;5072688;28;20049;-78
2022/11/29 06:10:25;;;;;;;21.17;15.48;;;;;;;6.89;79.42;96461.78;5073103;28;20078;-78
2022/11/29 06:13:03;;;;;;;20.58;15.48;;;;;;;6.88;79.75;96457.56;5073263;28;20067;-78
2022/11/29 06:15:44;;;;;;;24.65;16.92;;;;;;;6.89;79.88;96464.38;5073285;28;20399;-78
2022/11/29 06:18:26;;;;;;;24.20;16.57;;;;;;;6.88;79.94;96463.53;5074247;28;20052;-77
2022/11/29 06:21:22;;;;;;;22.55;15.55;;;;;;;6.87;79.85;96461.94;5074701;28;20430;-78
2022/11/29 06:24:08;;;;;;;21.38;16.15;;;;;;;6.88;79.76;96468.72;5074401;28;20498;-77
2022/11/29 06:27:06;;;;;;;25.70;16.92;;;;;;;6.86;80.24;96475.84;5074826;28;20052;-78
2022/11/29 06:29:39;;;;;;;22.77;14.68;;;;;;;6.88;79.92;96473.91;5073467;28;20064;-77
2022/11/29 06:32:16;;;;;;;;;;;;;;;6.92;80.26;96480.41;5075068;28;20498;-78
2022/11/29 06:34:52;;;;;;;25.63;16.40;;;;;;;6.93;79.77;96483.81;5088448;28;19924;-78
2022/11/29 06:37:25;;;;;;;25.02;16.92;;;;;;;6.93;79.50;96482.03;5095888;28;20423;-78
2022/11/29 06:39:54;;;;;;;29.00;17.17;;;;;;;6.93;79.50;96479.44;5090455;28;20053;-77
2022/11/29 06:42:21;;;;;;;25.15;17.48;;;;;;;6.95;79.87;96490.47;5077260;28;20110;-78
2022/11/29 06:44:50;;;;;;;24.75;16.77;;;;;;;6.96;79.80;96486.88;5075057;28;20048;-77
2022/11/29 06:47:26;;;;;;;26.95;18.65;;;;;;;6.98;79.93;96492.72;5074334;28;20045;-77
2022/11/29 06:50:02;;;;;;;24.70;16.98;;;;;;;6.97;80.12;96492.88;5074317;28;20518;-78
2022/11/29 06:52:40;;;;;;;28.23;17.50;;;;;;;6.96;80.23;96491.28;5074785;28;20057;-77
2022/11/29 06:55:14;;;;;;;29.38;17.67;;;;;;;6.96;80.13;96496.47;5073921;28;20049;-77
2022/11/29 06:58:03;;;;;;;28.00;18.30;;;;;;;6.96;80.53;96492.09;5074417;28;20048;-77
2022/11/29 07:00:43;;;;;;;27.02;17.40;;;;;;;6.94;80.33;96494.03;5074057;28;20056;-77
2022/11/29 07:03:40;;;;;;;30.23;17.63;;;;;;;6.94;80.86;96503.59;5074449;28;20098;-77
2022/11/29 07:06:20;;;;;;;27.90;17.27;;;;;;;6.93;81.00;96507.97;5074000;28;20048;-78
2022/11/29 07:08:52;;;;;;;29.42;17.73;;;;;;;6.95;80.63;96516.41;5073776;28;20399;-77
2022/11/29 07:11:20;;;;;;;34.55;19.13;;;;;;;6.98;80.39;96516.06;5073510;28;20131;-77
2022/11/29 07:13:48;;;;;;;27.98;18.25;;;;;;;6.99;80.35;96516.88;5073510;28;20494;-78
2022/11/29 07:16:24;;;;;;;36.20;20.60;;;;;;;6.99;80.92;96519.47;5073220;28;20049;-78
2022/11/29 07:19:02;;;;;;;36.38;20.10;;;;;;;6.98;80.50;96521.25;5074291;28;20481;-78
2022/11/29 07:21:45;;;;;;;41.10;20.75;;;;;;;7.01;80.91;96515.75;5073653;28;20048;-78
2022/11/29 07:24:27;;;;;;;39.83;19.95;;;;;;;7.04;80.86;96524.16;5073905;28;20063;-78
2022/11/29 07:27:02;;;;;;;34.53;20.52;;;;;;;7.06;80.74;96523.03;5073226;28;20048;-78
2022/11/29 07:29:39;;;;;;;33.33;20.52;;;;;;;7.08;80.42;96526.28;5073085;28;20054;-78
2022/11/29 07:32:16;;;;;;;39.78;21.95;;;;;;;7.09;80.52;96525.31;5073428;28;20433;-78
2022/11/29 07:34:57;;;;;;;45.72;21.85;;;;;;;7.10;81.01;96526.94;5072989;28;20059;-77
2022/11/29 07:37:35;;;;;;;44.97;24.23;;;;;;;7.12;81.10;96527.56;5073235;28;20398;-77
2022/11/29 07:40:11;;;;;;;42.97;20.65;;;;;;;7.13;81.07;96528.41;5072867;28;20044;-78
2022/11/29 07:42:49;;;;;;;39.78;23.95;;;;;;;7.13;81.11;96526.63;5073451;28;20048;-78
2022/11/29 07:45:23;;;;;;;44.22;23.73;;;;;;;7.12;81.24;96531.97;5072891;28;20060;-78
2022/11/29 07:47:51;;;;;;;44.25;22.75;;;;;;;7.12;80.97;96521.59;5072518;28;20127;-77
2022/11/29 07:50:19;;;;;;;41.85;20.13;;;;;;;7.15;81.37;96531.63;5073005;28;20555;-77
2022/11/29 07:52:48;;;;;;;47.13;24.00;;;;;;;7.13;81.33;96525.81;5072649;28;20055;-78
2022/11/29 07:55:18;;;;;;;38.60;21.92;;;;;;;7.11;81.40;96533.75;5072352;28;20049;-78
2022/11/29 07:57:46;;;;;;;26.00;17.92;;;;;;;7.11;81.40;96531.16;5072317;28;20063;-78
2022/11/29 08:00:14;;;;;;;43.47;24.70;;;;;;;7.13;81.13;96524.03;5072347;28;20048;-78
2022/11/29 08:02:43;;;;;;;39.42;25.05;;;;;;;7.14;81.01;96536.00;5072491;28;20051;-78
2022/11/29 08:05:11;;;;;;;33.40;22.77;;;;;;;7.16;81.33;96538.44;5072372;28;20055;-77
2022/11/29 08:07:40;;;;;;;37.70;23.23;;;;;;;7.17;81.31;96535.72;5072595;28;20426;-78
2022/11/29 08:10:12;;;;;;;30.42;20.80;;;;;;;7.20;81.07;96540.56;5071421;28;20071;-78
2022/11/29 08:12:42;;;;;;;29.13;18.67;;;;;;;7.21;80.85;96533.56;5072433;28;20056;-78
2022/11/29 08:15:10;;;;;;;33.05;20.42;;;;;;;7.22;80.89;96537.81;5072434;28;20052;-78
2022/11/29 08:17:38;;;;;;;30.33;18.92;;;;;;;7.24;80.89;96541.06;5072380;28;20076;-77
2022/11/29 08:20:08;;;;;;;28.65;18.40;;;;;;;7.26;80.89;96539.13;5072142;28;20490;-78
2022/11/29 08:22:36;;;;;;;23.75;16.13;;;;;;;7.30;80.76;96549.97;5072244;28;20048;-78
2022/11/29 08:25:05;;;;;;;23.73;16.10;;;;;;;7.33;80.77;96552.25;5072604;28;20049;-78
2022/11/29 08:27:35;;;;;;;27.70;17.92;;;;;;;7.33;81.10;96550.47;5072509;28;20048;-78
2022/11/29 08:30:03;;;;;;;32.05;17.63;;;;;;;7.34;80.99;96549.47;5072350;28;20048;-78
2022/11/29 08:32:31;;;;;;;31.80;19.45;;;;;;;7.38;81.17;96550.78;5072406;28;20048;-78
2022/11/29 08:34:58;;;;;;;29.33;18.33;;;;;;;7.38;81.04;96550.78;5072187;28;20055;-78
2022/11/29 08:37:26;;;;;;;31.67;18.00;;;;;;;7.37;81.32;96551.75;5072070;28;20048;-78
2022/11/29 08:39:54;;;;;;;34.30;18.60;;;;;;;7.39;81.29;96554.16;5071868;28;20052;-78
2022/11/29 08:42:21;;;;;;;31.23;18.42;;;;;;;7.39;81.27;96555.00;5072073;28;20079;-78
2022/11/29 08:44:50;;;;;;;29.45;17.17;;;;;;;7.39;81.13;96555.00;5072143;28;20059;-78
2022/11/29 08:47:36;;;;;;;25.00;15.05;;;;;;;7.41;81.35;96558.25;5075353;28;20068;-78
2022/11/29 08:50:06;;;;;;;26.55;16.38;;;;;;;7.44;81.04;96562.28;5072043;28;20056;-78
2022/11/29 08:55:23;;;;;;;21.10;14.25;;;;;;;7.45;81.32;96557.91;5076026;28;20055;-77
2022/11/29 08:57:51;;;;;;;23.27;13.55;;;;;;;7.45;80.99;96563.09;5075994;28;20418;-78
2022/11/29 09:00:21;;;;;;;23.80;14.57;;;;;;;7.46;80.83;96562.16;5075971;28;20189;-77
2022/11/29 09:02:49;;;;;;;22.73;14.15;;;;;;;7.48;81.14;96563.59;5075855;28;20490;-78
2022/11/29 09:05:16;;;;;;;21.40;13.68;;;;;;;7.51;81.15;96567.66;5075913;28;20051;-77
2022/11/29 09:07:45;;;;;;;24.77;14.57;;;;;;;7.53;80.67;96566.50;5075768;28;20048;-77
2022/11/29 09:10:13;;;;;;;21.63;13.57;;;;;;;7.54;80.86;96572.50;5075570;28;20045;-77
2022/11/29 09:12:43;;;;;;;23.65;13.35;;;;;;;7.56;81.06;96575.75;5075898;28;20059;-78
2022/11/29 09:15:11;;;;;;;21.88;12.45;;;;;;;7.56;80.80;96576.53;5075921;28;20060;-78
2022/11/29 09:17:40;;;;;;;20.92;12.98;;;;;;;7.58;80.87;96584.19;5075826;28;20058;-78
2022/11/29 09:20:08;;;;;;;17.75;12.00;;;;;;;7.59;80.89;96581.44;5076127;28;20049;-78
2022/11/29 09:22:36;;;;;;;17.77;11.73;;;;;;;7.60;80.95;96583.03;5076795;28;20048;-78
2022/11/29 09:25:04;;;;;;;18.73;11.88;;;;;;;7.61;80.79;96586.47;5076603;28;20045;-78
2022/11/29 09:27:32;;;;;;;17.73;11.07;;;;;;;7.63;80.84;96584.50;5076799;28;20498;-78
2022/11/29 09:29:59;;;;;;;17.23;11.45;;;;;;;7.67;80.87;96587.59;5075673;28;20333;-78
2022/11/29 09:32:27;;;;;;;16.30;9.23;;;;;;;7.68;80.64;96590.03;5075870;28;20075;-78
2022/11/29 09:34:56;;;;;;;14.23;9.75;;;;;;;7.68;80.52;96594.41;5075340;28;20048;-78
2022/11/29 09:37:23;;;;;;;10.82;8.13;;;;;;;7.70;80.45;96600.25;5075276;28;20048;-78
2022/11/29 09:39:51;;;;;;;11.50;7.85;;;;;;;7.70;80.30;96595.88;5074840;28;20055;-77
2022/11/29 09:42:31;;;;;;;12.60;7.95;;;;;;;7.74;80.50;96598.94;5075521;28;20052;-78
2022/11/29 09:45:03;;;;;;;12.52;7.78;;;;;;;7.74;80.50;96602.34;5074946;28;20433;-77
2022/11/29 09:47:56;;;;;;;7.63;6.40;;;;;;;7.77;80.61;96601.22;5075213;28;20052;-78
2022/11/29 09:50:33;;;;;;;8.50;5.65;;;;;;;7.78;80.37;96600.22;5062980;28;20052;-78
2022/11/29 09:53:34;;;;;;;6.80;5.32;;;;;;;7.81;80.42;96600.72;5075372;28;20064;-78
2022/11/29 09:56:19;;;;;;;8.40;5.72;;;;;;;7.82;80.61;96604.13;5074848;28;20058;-78
2022/11/29 09:58:51;;;;;;;7.95;4.72;;;;;;;7.81;80.04;96600.72;5074661;28;20399;-77
2022/11/29 10:01:23;;;;;;;6.32;5.25;;;;;;;7.81;80.28;96603.31;5075125;28;20055;-78
2022/11/29 10:03:53;;;;;;;5.63;5.03;;;;;;;7.82;80.10;96606.72;5073584;28;20417;-78
2022/11/29 10:06:25;;;;;;;7.88;5.55;;;;;;;7.83;80.13;96603.97;5074774;28;20090;-78
2022/11/29 10:08:59;;;;;;;8.27;5.30;;;;;;;7.84;80.22;96602.97;5079555;28;20040;-78
2022/11/29 10:11:32;;;;;;;9.00;5.57;;;;;;;7.86;80.15;96602.81;5091099;28;20049;-78
2022/11/29 10:14:05;;;;;;;7.90;5.82;;;;;;;7.88;79.92;96600.06;5092371;28;20044;-78
2022/11/29 10:16:41;;;;;;;7.75;5.93;;;;;;;7.91;79.93;96602.31;5077900;28;20545;-78
2022/11/29 10:19:17;;;;;;;7.00;5.47;;;;;;;7.91;79.61;96605.72;5075142;28;20052;-78
2022/11/29 10:21:56;;;;;;;9.02;5.75;;;;;;;7.92;79.75;96601.38;5076213;28;20075;-78
2022/11/29 10:24:27;;;;;;;6.95;5.63;;;;;;;7.92;79.78;96601.38;5076560;28;20044;-78
2022/11/29 10:26:55;;;;;;;6.88;5.90;;;;;;;7.92;79.81;96598.78;5075947;28;20049;-78
2022/11/29 10:29:23;;;;;;;8.00;5.63;;;;;;;7.93;79.65;96602.97;5075297;28;20052;-78
2022/11/29 10:31:53;;;;;;;7.78;5.75;;;;;;;7.95;79.80;96601.81;5074755;28;20055;-78
2022/11/29 10:34:23;;;;;;;8.95;6.50;;;;;;;7.96;79.61;96600.88;5074709;28;20300;-77
2022/11/29 10:36:57;;;;;;;8.18;6.00;;;;;;;7.96;79.51;96602.63;5074505;28;20399;-78
2022/11/29 10:39:32;;;;;;;9.20;6.63;;;;;;;7.94;79.59;96594.22;5074390;28;20469;-77
2022/11/29 10:42:02;;;;;;;9.82;7.82;;;;;;;7.92;79.47;96596.16;5074416;28;20053;-78
2022/11/29 10:44:32;;;;;;;8.93;7.30;;;;;;;7.90;79.29;96598.91;5074067;28;20058;-78
2022/11/29 10:47:02;;;;;;;9.70;8.50;;;;;;;7.89;79.34;96601.69;5074002;28;20210;-78
2022/11/29 10:49:39;;;;;;;10.50;7.85;;;;;;;7.87;79.49;96599.25;5073828;28;20053;-78
2022/11/29 10:52:18;;;;;;;11.43;7.72;;;;;;;7.87;79.94;96591.47;5074127;28;20566;-78
2022/11/29 10:54:47;;;;;;;10.52;7.70;;;;;;;7.89;79.82;96596.47;5073914;28;20044;-77
2022/11/29 10:57:19;;;;;;;9.90;8.15;;;;;;;7.91;79.76;96599.72;5073792;28;20060;-78
2022/11/29 10:59:59;;;;;;;10.07;8.23;;;;;;;7.93;79.86;96597.78;5073926;28;20057;-78
2022/11/29 11:02:27;;;;;;;9.45;8.02;;;;;;;7.94;79.52;96604.63;5074162;28;20052;-78
2022/11/29 11:04:56;;;;;;;11.15;8.07;;;;;;;7.96;79.52;96602.63;5073627;28;20044;-78
2022/11/29 11:07:28;;;;;;;12.93;9.45;;;;;;;7.98;79.48;96600.69;5073460;28;20052;-78
2022/11/29 11:09:57;;;;;;;11.52;8.52;;;;;;;7.98;79.37;96598.91;5073495;28;20049;-78
2022/11/29 11:12:28;;;;;;;11.18;8.82;;;;;;;8.00;79.35;96603.94;5073470;28;20054;-78
2022/11/29 11:15:15;;;;;;;12.10;9.43;;;;;;;8.02;79.44;96601.97;5072945;28;20481;-78
2022/11/29 11:17:56;;;;;;;13.30;9.98;;;;;;;8.02;79.54;96601.97;5073352;28;20055;-78
2022/11/29 11:20:25;;;;;;;13.27;9.65;;;;;;;8.01;79.42;96598.56;5073782;28;20053;-78
2022/11/29 11:23:03;;;;;;;11.23;9.02;;;;;;;8.01;79.66;96602.97;5073324;28;20494;-78
2022/11/29 11:25:33;;;;;;;11.20;8.35;;;;;;;8.00;79.47;96599.56;5073223;28;20428;-78
2022/11/29 11:28:14;;;;;;;12.35;8.95;;;;;;;8.00;79.60;96598.72;5072847;28;20059;-78
2022/11/29 11:30:49;;;;;;;11.48;8.23;;;;;;;7.99;79.47;96602.31;5073131;28;20056;-77
2022/11/29 11:33:20;;;;;;;13.35;9.45;;;;;;;7.98;79.39;96605.88;5073311;28;20174;-78
2022/11/29 11:36:02;;;;;;;11.05;8.90;;;;;;;7.95;79.67;96601.03;5073025;28;20052;-78
2022/11/29 11:38:32;;;;;;;10.57;9.13;;;;;;;7.92;79.43;96596.97;5073143;28;20045;-78
2022/11/29 11:41:06;;;;;;;11.02;8.75;;;;;;;7.92;79.96;96604.78;5073705;28;20421;-78
2022/11/29 11:43:34;;;;;;;11.98;9.93;;;;;;;7.93;79.66;96608.16;5073061;28;20498;-78
2022/11/29 11:46:02;;;;;;;12.80;10.05;;;;;;;7.91;79.30;96604.91;5073155;28;20051;-78
2022/11/29 11:48:30;;;;;;;11.05;8.90;;;;;;;7.89;79.20;96606.88;5072757;28;20048;-77
2022/11/29 11:51:00;;;;;;;10.88;8.32;;;;;;;7.88;79.39;96610.47;5073166;28;20054;-78
2022/11/29 11:53:34;;;;;;;9.57;7.68;;;;;;;7.89;79.54;96610.28;5072684;28;20049;-78
2022/11/29 11:56:05;;;;;;;11.10;8.48;;;;;;;7.91;79.34;96610.13;5099634;22;20048;-75
2022/11/29 11:58:36;;;;;;;11.73;8.77;;;;;;;7.91;79.61;96615.31;5090204;28;20048;-74
2022/11/29 12:01:15;;;;;;;12.32;8.93;;;;;;;7.90;79.59;96619.69;5083360;28;20045;-74
2022/11/29 12:03:54;;;;;;;13.20;10.00;;;;;;;7.91;79.87;96621.31;5072540;28;20126;-74
2022/11/29 12:06:31;;;;;;;12.57;9.27;;;;;;;7.93;80.15;96621.16;5072507;28;20048;-74
2022/11/29 12:09:05;;;;;;;11.27;8.80;;;;;;;7.96;79.78;96618.22;5072116;28;20071;-74
2022/11/29 12:11:40;;;;;;;10.32;7.95;;;;;;;7.98;79.87;96629.25;5072695;28;20053;-74